sensor_id;sensor_type;location;lat;lon;timestamp;P1;durP1;ratioP1;P2;durP2;ratioP2
9260;SDS011;4667;42.726;23.252;2023-09-19T00:02:27;4.83;;;4.30;;
9260;SDS011;4667;42.726;23.252;2023-09-19T00:04:54;5.87;;;4.70;;
9260;SDS011;4667;42.726;23.252;2023-09-19T00:07:21;5.27;;;4.33;;
9260;SDS011;4667;42.726;23.252;2023-09-19T00:09:48;4.90;;;4.30;;
9260;SDS011;4667;42.726;23.252;2023-09-19T00:12:16;7.07;;;4.87;;
9260;SDS011;4667;42.726;23.252;2023-09-19T00:14:44;5.83;;;3.87;;
9260;SDS011;4667;42.726;23.252;2023-09-19T00:17:11;5.47;;;4.70;;
9260;SDS011;4667;42.726;23.252;2023-09-19T00:19:39;4.73;;;4.23;;
9260;SDS011;4667;42.726;23.252;2023-09-19T00:22:08;6.33;;;4.47;;
9260;SDS011;4667;42.726;23.252;2023-09-19T00:24:35;7.70;;;5.27;;
9260;SDS011;4667;42.726;23.252;2023-09-19T00:27:02;5.60;;;4.20;;
9260;SDS011;4667;42.726;23.252;2023-09-19T00:29:30;7.90;;;4.43;;
9260;SDS011;4667;42.726;23.252;2023-09-19T00:31:59;5.50;;;4.73;;
9260;SDS011;4667;42.726;23.252;2023-09-19T00:34:26;8.03;;;4.27;;
9260;SDS011;4667;42.726;23.252;2023-09-19T00:36:54;5.07;;;4.20;;
9260;SDS011;4667;42.726;23.252;2023-09-19T00:39:21;8.27;;;4.30;;
9260;SDS011;4667;42.726;23.252;2023-09-19T00:41:50;6.60;;;4.00;;
9260;SDS011;4667;42.726;23.252;2023-09-19T00:44:19;6.37;;;4.80;;
9260;SDS011;4667;42.726;23.252;2023-09-19T00:46:48;5.50;;;4.37;;
9260;SDS011;4667;42.726;23.252;2023-09-19T00:49:16;5.03;;;4.07;;
9260;SDS011;4667;42.726;23.252;2023-09-19T00:51:47;5.17;;;4.67;;
9260;SDS011;4667;42.726;23.252;2023-09-19T00:54:17;7.10;;;4.67;;
9260;SDS011;4667;42.726;23.252;2023-09-19T00:56:45;5.83;;;4.37;;
9260;SDS011;4667;42.726;23.252;2023-09-19T00:59:14;6.77;;;4.63;;
9260;SDS011;4667;42.726;23.252;2023-09-19T01:01:41;4.83;;;4.30;;
9260;SDS011;4667;42.726;23.252;2023-09-19T01:04:11;6.93;;;4.67;;
9260;SDS011;4667;42.726;23.252;2023-09-19T01:06:38;7.03;;;4.63;;
9260;SDS011;4667;42.726;23.252;2023-09-19T01:09:05;7.50;;;4.63;;
9260;SDS011;4667;42.726;23.252;2023-09-19T01:11:35;5.60;;;4.40;;
9260;SDS011;4667;42.726;23.252;2023-09-19T01:14:12;5.93;;;4.90;;
9260;SDS011;4667;42.726;23.252;2023-09-19T01:16:50;5.10;;;4.60;;
9260;SDS011;4667;42.726;23.252;2023-09-19T01:19:45;5.00;;;4.20;;
9260;SDS011;4667;42.726;23.252;2023-09-19T01:22:37;4.73;;;4.23;;
9260;SDS011;4667;42.726;23.252;2023-09-19T01:25:28;5.20;;;4.70;;
9260;SDS011;4667;42.726;23.252;2023-09-19T01:28:28;4.50;;;4.00;;
9260;SDS011;4667;42.726;23.252;2023-09-19T01:31:03;11.83;;;4.77;;
9260;SDS011;4667;42.726;23.252;2023-09-19T01:36:34;5.57;;;4.43;;
9260;SDS011;4667;42.726;23.252;2023-09-19T01:39:04;7.13;;;5.07;;
9260;SDS011;4667;42.726;23.252;2023-09-19T01:41:38;9.70;;;5.37;;
9260;SDS011;4667;42.726;23.252;2023-09-19T01:44:13;7.60;;;5.33;;
9260;SDS011;4667;42.726;23.252;2023-09-19T01:46:47;6.23;;;5.63;;
9260;SDS011;4667;42.726;23.252;2023-09-19T01:49:18;9.07;;;6.03;;
9260;SDS011;4667;42.726;23.252;2023-09-19T01:51:56;8.13;;;6.50;;
9260;SDS011;4667;42.726;23.252;2023-09-19T01:54:40;7.17;;;5.87;;
9260;SDS011;4667;42.726;23.252;2023-09-19T01:57:14;8.40;;;6.03;;
9260;SDS011;4667;42.726;23.252;2023-09-19T01:59:48;7.77;;;6.73;;
9260;SDS011;4667;42.726;23.252;2023-09-19T02:02:23;9.03;;;6.17;;
9260;SDS011;4667;42.726;23.252;2023-09-19T02:04:51;7.03;;;6.30;;
9260;SDS011;4667;42.726;23.252;2023-09-19T02:07:21;11.80;;;6.83;;
9260;SDS011;4667;42.726;23.252;2023-09-19T02:09:48;7.20;;;6.50;;
9260;SDS011;4667;42.726;23.252;2023-09-19T02:12:16;7.00;;;5.87;;
9260;SDS011;4667;42.726;23.252;2023-09-19T02:14:42;8.63;;;6.43;;
9260;SDS011;4667;42.726;23.252;2023-09-19T02:17:10;7.83;;;6.27;;
9260;SDS011;4667;42.726;23.252;2023-09-19T02:19:39;7.80;;;6.37;;
9260;SDS011;4667;42.726;23.252;2023-09-19T02:22:06;6.67;;;5.93;;
9260;SDS011;4667;42.726;23.252;2023-09-19T02:24:35;8.07;;;6.47;;
9260;SDS011;4667;42.726;23.252;2023-09-19T02:27:02;8.13;;;6.03;;
9260;SDS011;4667;42.726;23.252;2023-09-19T02:29:31;11.53;;;6.33;;
9260;SDS011;4667;42.726;23.252;2023-09-19T02:31:59;8.27;;;6.37;;
9260;SDS011;4667;42.726;23.252;2023-09-19T02:34:27;10.33;;;6.03;;
9260;SDS011;4667;42.726;23.252;2023-09-19T02:36:56;7.27;;;6.47;;
9260;SDS011;4667;42.726;23.252;2023-09-19T02:39:25;9.97;;;6.73;;
9260;SDS011;4667;42.726;23.252;2023-09-19T02:41:54;7.20;;;5.87;;
9260;SDS011;4667;42.726;23.252;2023-09-19T02:44:21;10.30;;;7.07;;
9260;SDS011;4667;42.726;23.252;2023-09-19T02:46:48;8.73;;;7.13;;
9260;SDS011;4667;42.726;23.252;2023-09-19T02:49:16;9.37;;;6.33;;
9260;SDS011;4667;42.726;23.252;2023-09-19T02:51:44;7.80;;;7.03;;
9260;SDS011;4667;42.726;23.252;2023-09-19T02:54:14;8.27;;;6.37;;
9260;SDS011;4667;42.726;23.252;2023-09-19T02:56:42;7.97;;;6.00;;
9260;SDS011;4667;42.726;23.252;2023-09-19T02:59:09;7.90;;;6.80;;
9260;SDS011;4667;42.726;23.252;2023-09-19T03:01:37;9.00;;;6.57;;
9260;SDS011;4667;42.726;23.252;2023-09-19T03:04:04;9.70;;;6.37;;
9260;SDS011;4667;42.726;23.252;2023-09-19T03:06:36;6.80;;;6.07;;
9260;SDS011;4667;42.726;23.252;2023-09-19T03:09:04;10.10;;;6.63;;
9260;SDS011;4667;42.726;23.252;2023-09-19T03:11:39;12.83;;;6.10;;
9260;SDS011;4667;42.726;23.252;2023-09-19T03:14:07;10.00;;;6.20;;
9260;SDS011;4667;42.726;23.252;2023-09-19T03:16:35;10.17;;;7.07;;
9260;SDS011;4667;42.726;23.252;2023-09-19T03:19:03;9.37;;;6.40;;
9260;SDS011;4667;42.726;23.252;2023-09-19T03:21:30;8.10;;;7.00;;
9260;SDS011;4667;42.726;23.252;2023-09-19T03:23:57;9.37;;;6.93;;
9260;SDS011;4667;42.726;23.252;2023-09-19T03:26:25;9.00;;;8.10;;
9260;SDS011;4667;42.726;23.252;2023-09-19T03:28:54;10.13;;;7.07;;
9260;SDS011;4667;42.726;23.252;2023-09-19T03:31:22;12.03;;;7.50;;
9260;SDS011;4667;42.726;23.252;2023-09-19T03:33:49;8.00;;;6.97;;
9260;SDS011;4667;42.726;23.252;2023-09-19T03:36:17;10.60;;;6.63;;
9260;SDS011;4667;42.726;23.252;2023-09-19T03:38:44;12.40;;;6.77;;
9260;SDS011;4667;42.726;23.252;2023-09-19T03:41:11;11.00;;;7.40;;
9260;SDS011;4667;42.726;23.252;2023-09-19T03:43:39;9.93;;;7.53;;
9260;SDS011;4667;42.726;23.252;2023-09-19T03:46:07;14.50;;;7.97;;
9260;SDS011;4667;42.726;23.252;2023-09-19T03:48:34;8.73;;;7.07;;
9260;SDS011;4667;42.726;23.252;2023-09-19T03:51:01;8.73;;;7.47;;
9260;SDS011;4667;42.726;23.252;2023-09-19T03:53:28;8.10;;;7.30;;
9260;SDS011;4667;42.726;23.252;2023-09-19T03:55:55;8.23;;;6.97;;
9260;SDS011;4667;42.726;23.252;2023-09-19T03:58:22;11.47;;;7.37;;
9260;SDS011;4667;42.726;23.252;2023-09-19T04:00:49;9.57;;;7.93;;
9260;SDS011;4667;42.726;23.252;2023-09-19T04:03:19;11.53;;;7.17;;
9260;SDS011;4667;42.726;23.252;2023-09-19T04:05:46;10.77;;;7.30;;
9260;SDS011;4667;42.726;23.252;2023-09-19T04:08:13;9.17;;;8.00;;
9260;SDS011;4667;42.726;23.252;2023-09-19T04:10:41;9.27;;;7.50;;
9260;SDS011;4667;42.726;23.252;2023-09-19T04:13:09;9.97;;;8.10;;
9260;SDS011;4667;42.726;23.252;2023-09-19T04:15:37;10.07;;;7.97;;
9260;SDS011;4667;42.726;23.252;2023-09-19T04:18:05;8.97;;;7.63;;
9260;SDS011;4667;42.726;23.252;2023-09-19T04:20:34;9.17;;;7.50;;
9260;SDS011;4667;42.726;23.252;2023-09-19T04:23:01;9.83;;;7.40;;
9260;SDS011;4667;42.726;23.252;2023-09-19T04:25:29;8.63;;;7.23;;
9260;SDS011;4667;42.726;23.252;2023-09-19T04:27:57;11.30;;;7.87;;
9260;SDS011;4667;42.726;23.252;2023-09-19T04:30:24;14.43;;;7.63;;
9260;SDS011;4667;42.726;23.252;2023-09-19T04:32:52;9.67;;;7.50;;
9260;SDS011;4667;42.726;23.252;2023-09-19T04:35:18;11.63;;;8.30;;
9260;SDS011;4667;42.726;23.252;2023-09-19T04:37:47;10.03;;;7.93;;
9260;SDS011;4667;42.726;23.252;2023-09-19T04:40:14;13.90;;;7.80;;
9260;SDS011;4667;42.726;23.252;2023-09-19T04:42:42;8.90;;;7.67;;
9260;SDS011;4667;42.726;23.252;2023-09-19T04:45:10;9.80;;;8.13;;
9260;SDS011;4667;42.726;23.252;2023-09-19T04:47:37;14.60;;;8.40;;
9260;SDS011;4667;42.726;23.252;2023-09-19T04:50:06;14.30;;;8.97;;
9260;SDS011;4667;42.726;23.252;2023-09-19T04:52:38;12.03;;;7.37;;
9260;SDS011;4667;42.726;23.252;2023-09-19T04:55:10;10.93;;;8.10;;
9260;SDS011;4667;42.726;23.252;2023-09-19T04:57:41;23.07;;;9.40;;
9260;SDS011;4667;42.726;23.252;2023-09-19T05:00:10;11.13;;;8.10;;
9260;SDS011;4667;42.726;23.252;2023-09-19T05:02:40;12.70;;;8.53;;
9260;SDS011;4667;42.726;23.252;2023-09-19T05:05:07;12.23;;;8.07;;
9260;SDS011;4667;42.726;23.252;2023-09-19T05:07:36;12.80;;;8.27;;
9260;SDS011;4667;42.726;23.252;2023-09-19T05:10:03;12.63;;;8.43;;
9260;SDS011;4667;42.726;23.252;2023-09-19T05:12:35;14.93;;;8.80;;
9260;SDS011;4667;42.726;23.252;2023-09-19T05:15:02;14.03;;;8.97;;
9260;SDS011;4667;42.726;23.252;2023-09-19T05:17:30;12.20;;;8.53;;
9260;SDS011;4667;42.726;23.252;2023-09-19T05:19:57;10.20;;;7.77;;
9260;SDS011;4667;42.726;23.252;2023-09-19T05:22:26;10.47;;;8.33;;
9260;SDS011;4667;42.726;23.252;2023-09-19T05:24:53;13.77;;;8.77;;
9260;SDS011;4667;42.726;23.252;2023-09-19T05:27:20;12.17;;;7.70;;
9260;SDS011;4667;42.726;23.252;2023-09-19T05:29:49;12.20;;;7.57;;
9260;SDS011;4667;42.726;23.252;2023-09-19T05:32:18;11.30;;;8.20;;
9260;SDS011;4667;42.726;23.252;2023-09-19T05:34:45;16.03;;;8.33;;
9260;SDS011;4667;42.726;23.252;2023-09-19T05:37:13;9.60;;;7.40;;
9260;SDS011;4667;42.726;23.252;2023-09-19T05:39:41;13.53;;;8.10;;
9260;SDS011;4667;42.726;23.252;2023-09-19T05:42:08;10.27;;;7.63;;
9260;SDS011;4667;42.726;23.252;2023-09-19T05:44:35;12.93;;;8.47;;
9260;SDS011;4667;42.726;23.252;2023-09-19T05:47:04;15.00;;;8.83;;
9260;SDS011;4667;42.726;23.252;2023-09-19T05:49:34;10.00;;;7.60;;
9260;SDS011;4667;42.726;23.252;2023-09-19T05:52:03;10.30;;;7.90;;
9260;SDS011;4667;42.726;23.252;2023-09-19T05:54:31;10.50;;;7.47;;
9260;SDS011;4667;42.726;23.252;2023-09-19T05:56:59;12.73;;;7.90;;
9260;SDS011;4667;42.726;23.252;2023-09-19T05:59:26;13.13;;;9.63;;
9260;SDS011;4667;42.726;23.252;2023-09-19T06:01:53;13.37;;;8.40;;
9260;SDS011;4667;42.726;23.252;2023-09-19T06:04:22;12.27;;;8.40;;
9260;SDS011;4667;42.726;23.252;2023-09-19T06:06:50;12.02;;;7.25;;
9260;SDS011;4667;42.726;23.252;2023-09-19T06:09:18;10.27;;;7.53;;
9260;SDS011;4667;42.726;23.252;2023-09-19T06:11:48;11.57;;;8.10;;
9260;SDS011;4667;42.726;23.252;2023-09-19T06:14:14;12.52;;;8.13;;
9260;SDS011;4667;42.726;23.252;2023-09-19T06:16:42;11.63;;;7.47;;
9260;SDS011;4667;42.726;23.252;2023-09-19T06:19:10;13.40;;;7.40;;
9260;SDS011;4667;42.726;23.252;2023-09-19T06:21:39;14.25;;;7.45;;
9260;SDS011;4667;42.726;23.252;2023-09-19T06:24:06;13.82;;;8.15;;
9260;SDS011;4667;42.726;23.252;2023-09-19T06:26:33;11.93;;;7.47;;
9260;SDS011;4667;42.726;23.252;2023-09-19T06:29:00;11.45;;;6.90;;
9260;SDS011;4667;42.726;23.252;2023-09-19T06:31:32;11.25;;;6.72;;
9260;SDS011;4667;42.726;23.252;2023-09-19T06:33:59;10.55;;;6.60;;
9260;SDS011;4667;42.726;23.252;2023-09-19T06:36:26;10.73;;;6.32;;
9260;SDS011;4667;42.726;23.252;2023-09-19T06:38:55;14.15;;;7.88;;
9260;SDS011;4667;42.726;23.252;2023-09-19T06:41:22;13.45;;;6.80;;
9260;SDS011;4667;42.726;23.252;2023-09-19T06:43:51;14.00;;;6.90;;
9260;SDS011;4667;42.726;23.252;2023-09-19T06:46:19;11.18;;;6.68;;
9260;SDS011;4667;42.726;23.252;2023-09-19T06:48:46;13.07;;;6.93;;
9260;SDS011;4667;42.726;23.252;2023-09-19T06:51:14;7.60;;;6.07;;
9260;SDS011;4667;42.726;23.252;2023-09-19T06:53:41;7.15;;;4.93;;
9260;SDS011;4667;42.726;23.252;2023-09-19T06:56:10;8.20;;;4.88;;
9260;SDS011;4667;42.726;23.252;2023-09-19T06:58:36;5.85;;;5.15;;
9260;SDS011;4667;42.726;23.252;2023-09-19T07:01:03;8.25;;;4.47;;
9260;SDS011;4667;42.726;23.252;2023-09-19T07:03:31;9.55;;;4.68;;
9260;SDS011;4667;42.726;23.252;2023-09-19T07:05:59;7.47;;;4.78;;
9260;SDS011;4667;42.726;23.252;2023-09-19T07:08:25;5.85;;;4.43;;
9260;SDS011;4667;42.726;23.252;2023-09-19T07:10:53;9.60;;;4.75;;
9260;SDS011;4667;42.726;23.252;2023-09-19T07:13:23;7.40;;;5.13;;
9260;SDS011;4667;42.726;23.252;2023-09-19T07:15:52;5.97;;;5.38;;
9260;SDS011;4667;42.726;23.252;2023-09-19T07:18:19;6.40;;;4.75;;
9260;SDS011;4667;42.726;23.252;2023-09-19T07:20:47;5.40;;;4.35;;
9260;SDS011;4667;42.726;23.252;2023-09-19T07:23:15;7.13;;;4.80;;
9260;SDS011;4667;42.726;23.252;2023-09-19T07:25:43;9.02;;;4.75;;
9260;SDS011;4667;42.726;23.252;2023-09-19T07:28:11;11.30;;;4.63;;
9260;SDS011;4667;42.726;23.252;2023-09-19T07:30:39;5.68;;;4.70;;
9260;SDS011;4667;42.726;23.252;2023-09-19T07:33:07;8.07;;;4.20;;
9260;SDS011;4667;42.726;23.252;2023-09-19T07:35:36;8.32;;;5.60;;
9260;SDS011;4667;42.726;23.252;2023-09-19T07:38:05;10.80;;;5.50;;
9260;SDS011;4667;42.726;23.252;2023-09-19T07:40:33;7.80;;;5.30;;
9260;SDS011;4667;42.726;23.252;2023-09-19T07:42:59;11.60;;;8.15;;
9260;SDS011;4667;42.726;23.252;2023-09-19T07:45:29;10.13;;;5.82;;
9260;SDS011;4667;42.726;23.252;2023-09-19T07:47:58;10.57;;;7.25;;
9260;SDS011;4667;42.726;23.252;2023-09-19T07:50:26;8.93;;;6.50;;
9260;SDS011;4667;42.726;23.252;2023-09-19T07:52:53;9.27;;;6.32;;
9260;SDS011;4667;42.726;23.252;2023-09-19T07:55:21;6.70;;;5.60;;
9260;SDS011;4667;42.726;23.252;2023-09-19T07:57:50;10.95;;;5.50;;
9260;SDS011;4667;42.726;23.252;2023-09-19T08:00:18;9.18;;;4.90;;
9260;SDS011;4667;42.726;23.252;2023-09-19T08:02:45;9.57;;;5.15;;
9260;SDS011;4667;42.726;23.252;2023-09-19T08:05:14;12.05;;;5.75;;
9260;SDS011;4667;42.726;23.252;2023-09-19T08:07:42;10.43;;;5.57;;
9260;SDS011;4667;42.726;23.252;2023-09-19T08:10:10;6.63;;;4.70;;
9260;SDS011;4667;42.726;23.252;2023-09-19T08:12:38;6.80;;;5.57;;
9260;SDS011;4667;42.726;23.252;2023-09-19T08:15:13;9.57;;;4.95;;
9260;SDS011;4667;42.726;23.252;2023-09-19T08:17:40;11.25;;;5.35;;
9260;SDS011;4667;42.726;23.252;2023-09-19T08:20:08;7.90;;;5.03;;
9260;SDS011;4667;42.726;23.252;2023-09-19T08:22:43;8.57;;;4.82;;
9260;SDS011;4667;42.726;23.252;2023-09-19T08:25:14;7.93;;;5.25;;
9260;SDS011;4667;42.726;23.252;2023-09-19T08:27:43;8.45;;;5.10;;
9260;SDS011;4667;42.726;23.252;2023-09-19T08:30:13;5.30;;;4.28;;
9260;SDS011;4667;42.726;23.252;2023-09-19T08:32:41;6.68;;;4.45;;
9260;SDS011;4667;42.726;23.252;2023-09-19T08:35:08;7.82;;;4.32;;
9260;SDS011;4667;42.726;23.252;2023-09-19T08:37:35;10.15;;;4.65;;
9260;SDS011;4667;42.726;23.252;2023-09-19T08:40:04;7.78;;;4.88;;
9260;SDS011;4667;42.726;23.252;2023-09-19T08:42:46;6.03;;;4.50;;
9260;SDS011;4667;42.726;23.252;2023-09-19T08:45:14;8.60;;;5.20;;
9260;SDS011;4667;42.726;23.252;2023-09-19T08:47:45;5.80;;;4.70;;
9260;SDS011;4667;42.726;23.252;2023-09-19T08:50:16;7.10;;;4.63;;
9260;SDS011;4667;42.726;23.252;2023-09-19T08:52:46;6.82;;;5.55;;
9260;SDS011;4667;42.726;23.252;2023-09-19T08:55:17;5.45;;;4.90;;
9260;SDS011;4667;42.726;23.252;2023-09-19T08:57:47;7.95;;;4.95;;
9260;SDS011;4667;42.726;23.252;2023-09-19T09:00:16;6.50;;;4.68;;
9260;SDS011;4667;42.726;23.252;2023-09-19T09:02:45;8.20;;;5.25;;
9260;SDS011;4667;42.726;23.252;2023-09-19T09:05:13;9.70;;;5.03;;
9260;SDS011;4667;42.726;23.252;2023-09-19T09:07:47;5.70;;;4.50;;
9260;SDS011;4667;42.726;23.252;2023-09-19T09:10:15;10.10;;;4.70;;
9260;SDS011;4667;42.726;23.252;2023-09-19T09:12:47;6.95;;;4.50;;
9260;SDS011;4667;42.726;23.252;2023-09-19T09:15:14;9.50;;;4.95;;
9260;SDS011;4667;42.726;23.252;2023-09-19T09:17:46;6.82;;;5.20;;
9260;SDS011;4667;42.726;23.252;2023-09-19T09:20:15;7.82;;;5.25;;
9260;SDS011;4667;42.726;23.252;2023-09-19T09:22:50;9.98;;;5.32;;
9260;SDS011;4667;42.726;23.252;2023-09-19T09:25:20;8.10;;;4.47;;
9260;SDS011;4667;42.726;23.252;2023-09-19T09:27:58;6.82;;;5.03;;
9260;SDS011;4667;42.726;23.252;2023-09-19T09:30:33;9.07;;;5.07;;
9260;SDS011;4667;42.726;23.252;2023-09-19T09:33:07;12.57;;;6.05;;
9260;SDS011;4667;42.726;23.252;2023-09-19T09:35:36;7.07;;;4.88;;
9260;SDS011;4667;42.726;23.252;2023-09-19T09:38:04;7.95;;;5.45;;
9260;SDS011;4667;42.726;23.252;2023-09-19T09:40:47;8.73;;;4.80;;
9260;SDS011;4667;42.726;23.252;2023-09-19T09:43:28;8.32;;;5.85;;
9260;SDS011;4667;42.726;23.252;2023-09-19T09:49:05;9.85;;;5.85;;
9260;SDS011;4667;42.726;23.252;2023-09-19T09:51:44;8.70;;;5.68;;
9260;SDS011;4667;42.726;23.252;2023-09-19T09:54:22;8.32;;;5.97;;
9260;SDS011;4667;42.726;23.252;2023-09-19T09:56:54;7.65;;;5.60;;
9260;SDS011;4667;42.726;23.252;2023-09-19T10:02:19;7.13;;;5.28;;
9260;SDS011;4667;42.726;23.252;2023-09-19T10:04:54;9.43;;;5.00;;
9260;SDS011;4667;42.726;23.252;2023-09-19T10:07:34;7.53;;;5.88;;
9260;SDS011;4667;42.726;23.252;2023-09-19T10:10:04;7.75;;;4.85;;
9260;SDS011;4667;42.726;23.252;2023-09-19T10:12:43;10.07;;;5.22;;
9260;SDS011;4667;42.726;23.252;2023-09-19T10:15:15;7.32;;;4.93;;
9260;SDS011;4667;42.726;23.252;2023-09-19T10:17:45;8.73;;;4.97;;
9260;SDS011;4667;42.726;23.252;2023-09-19T10:20:13;7.40;;;5.05;;
9260;SDS011;4667;42.726;23.252;2023-09-19T10:23:06;6.28;;;5.00;;
9260;SDS011;4667;42.726;23.252;2023-09-19T10:25:38;8.20;;;4.50;;
9260;SDS011;4667;42.726;23.252;2023-09-19T10:28:07;8.82;;;5.30;;
9260;SDS011;4667;42.726;23.252;2023-09-19T10:30:38;8.27;;;4.60;;
9260;SDS011;4667;42.726;23.252;2023-09-19T10:33:10;9.25;;;5.00;;
9260;SDS011;4667;42.726;23.252;2023-09-19T10:35:38;9.45;;;5.65;;
9260;SDS011;4667;42.726;23.252;2023-09-19T10:38:06;6.70;;;5.28;;
9260;SDS011;4667;42.726;23.252;2023-09-19T10:40:34;9.43;;;5.47;;
9260;SDS011;4667;42.726;23.252;2023-09-19T10:43:07;8.57;;;5.47;;
9260;SDS011;4667;42.726;23.252;2023-09-19T10:45:38;7.32;;;5.28;;
9260;SDS011;4667;42.726;23.252;2023-09-19T10:48:07;8.23;;;5.72;;
9260;SDS011;4667;42.726;23.252;2023-09-19T10:50:41;12.57;;;6.78;;
9260;SDS011;4667;42.726;23.252;2023-09-19T10:53:11;8.57;;;5.68;;
9260;SDS011;4667;42.726;23.252;2023-09-19T10:55:40;10.43;;;6.63;;
9260;SDS011;4667;42.726;23.252;2023-09-19T10:58:10;8.63;;;5.00;;
9260;SDS011;4667;42.726;23.252;2023-09-19T11:00:50;7.47;;;5.63;;
9260;SDS011;4667;42.726;23.252;2023-09-19T11:03:18;7.82;;;4.95;;
9260;SDS011;4667;42.726;23.252;2023-09-19T11:06:08;8.82;;;5.63;;
9260;SDS011;4667;42.726;23.252;2023-09-19T11:08:55;9.55;;;5.20;;
9260;SDS011;4667;42.726;23.252;2023-09-19T11:14:15;6.82;;;4.85;;
9260;SDS011;4667;42.726;23.252;2023-09-19T11:25:52;8.02;;;5.18;;
9260;SDS011;4667;42.726;23.252;2023-09-19T11:28:30;6.60;;;4.78;;
9260;SDS011;4667;42.726;23.252;2023-09-19T11:30:59;11.57;;;5.97;;
9260;SDS011;4667;42.726;23.252;2023-09-19T11:40:05;5.55;;;4.22;;
9260;SDS011;4667;42.726;23.252;2023-09-19T11:42:41;7.30;;;4.80;;
9260;SDS011;4667;42.726;23.252;2023-09-19T11:48:12;7.10;;;5.00;;
9260;SDS011;4667;42.726;23.252;2023-09-19T11:50:41;9.48;;;4.80;;
9260;SDS011;4667;42.726;23.252;2023-09-19T11:53:09;6.45;;;5.10;;
9260;SDS011;4667;42.726;23.252;2023-09-19T11:55:37;5.72;;;5.10;;
9260;SDS011;4667;42.726;23.252;2023-09-19T11:58:04;9.77;;;5.22;;
9260;SDS011;4667;42.726;23.252;2023-09-19T12:00:33;6.22;;;5.18;;
9260;SDS011;4667;42.726;23.252;2023-09-19T12:03:02;8.90;;;4.65;;
9260;SDS011;4667;42.726;23.252;2023-09-19T12:05:35;6.38;;;4.70;;
9260;SDS011;4667;42.726;23.252;2023-09-19T12:08:02;8.65;;;4.82;;
9260;SDS011;4667;42.726;23.252;2023-09-19T12:10:33;11.65;;;5.10;;
9260;SDS011;4667;42.726;23.252;2023-09-19T12:13:00;5.22;;;4.32;;
9260;SDS011;4667;42.726;23.252;2023-09-19T12:15:28;6.30;;;4.82;;
9260;SDS011;4667;42.726;23.252;2023-09-19T12:18:00;5.93;;;5.18;;
9260;SDS011;4667;42.726;23.252;2023-09-19T12:20:43;8.02;;;4.72;;
9260;SDS011;4667;42.726;23.252;2023-09-19T12:23:12;5.30;;;4.80;;
9260;SDS011;4667;42.726;23.252;2023-09-19T12:25:43;6.60;;;4.53;;
9260;SDS011;4667;42.726;23.252;2023-09-19T12:28:12;8.07;;;4.70;;
9260;SDS011;4667;42.726;23.252;2023-09-19T12:30:38;6.90;;;4.38;;
9260;SDS011;4667;42.726;23.252;2023-09-19T12:33:13;9.40;;;4.95;;
9260;SDS011;4667;42.726;23.252;2023-09-19T12:35:46;6.07;;;4.60;;
9260;SDS011;4667;42.726;23.252;2023-09-19T12:38:22;5.50;;;4.82;;
9260;SDS011;4667;42.726;23.252;2023-09-19T12:40:53;5.85;;;4.60;;
9260;SDS011;4667;42.726;23.252;2023-09-19T12:43:22;7.45;;;4.47;;
9260;SDS011;4667;42.726;23.252;2023-09-19T12:45:49;6.95;;;4.88;;
9260;SDS011;4667;42.726;23.252;2023-09-19T12:48:19;6.40;;;5.00;;
9260;SDS011;4667;42.726;23.252;2023-09-19T12:51:05;6.70;;;5.07;;
9260;SDS011;4667;42.726;23.252;2023-09-19T12:53:33;9.85;;;5.22;;
9260;SDS011;4667;42.726;23.252;2023-09-19T12:56:05;7.78;;;5.07;;
9260;SDS011;4667;42.726;23.252;2023-09-19T12:58:33;6.18;;;4.85;;
9260;SDS011;4667;42.726;23.252;2023-09-19T13:01:00;10.52;;;4.80;;
9260;SDS011;4667;42.726;23.252;2023-09-19T13:03:28;10.88;;;5.15;;
9260;SDS011;4667;42.726;23.252;2023-09-19T13:05:57;7.85;;;5.10;;
9260;SDS011;4667;42.726;23.252;2023-09-19T13:08:28;6.40;;;5.00;;
9260;SDS011;4667;42.726;23.252;2023-09-19T13:11:01;5.43;;;4.93;;
9260;SDS011;4667;42.726;23.252;2023-09-19T13:13:39;9.77;;;4.90;;
9260;SDS011;4667;42.726;23.252;2023-09-19T13:16:09;7.40;;;4.53;;
9260;SDS011;4667;42.726;23.252;2023-09-19T13:18:46;7.93;;;5.32;;
9260;SDS011;4667;42.726;23.252;2023-09-19T13:21:16;7.85;;;5.30;;
9260;SDS011;4667;42.726;23.252;2023-09-19T13:23:52;7.72;;;5.00;;
9260;SDS011;4667;42.726;23.252;2023-09-19T13:26:24;9.05;;;4.43;;
9260;SDS011;4667;42.726;23.252;2023-09-19T13:28:51;7.50;;;4.10;;
9260;SDS011;4667;42.726;23.252;2023-09-19T13:31:18;8.95;;;4.78;;
9260;SDS011;4667;42.726;23.252;2023-09-19T13:33:45;8.70;;;4.55;;
9260;SDS011;4667;42.726;23.252;2023-09-19T13:36:12;7.78;;;4.80;;
9260;SDS011;4667;42.726;23.252;2023-09-19T13:38:39;12.30;;;6.47;;
9260;SDS011;4667;42.726;23.252;2023-09-19T13:41:09;8.55;;;4.78;;
9260;SDS011;4667;42.726;23.252;2023-09-19T13:43:37;4.97;;;4.47;;
9260;SDS011;4667;42.726;23.252;2023-09-19T13:46:05;8.63;;;5.25;;
9260;SDS011;4667;42.726;23.252;2023-09-19T13:48:37;12.90;;;5.10;;
9260;SDS011;4667;42.726;23.252;2023-09-19T13:51:03;5.47;;;4.93;;
9260;SDS011;4667;42.726;23.252;2023-09-19T13:53:30;6.50;;;5.50;;
9260;SDS011;4667;42.726;23.252;2023-09-19T13:55:57;7.88;;;4.40;;
9260;SDS011;4667;42.726;23.252;2023-09-19T13:58:27;5.95;;;5.35;;
9260;SDS011;4667;42.726;23.252;2023-09-19T14:00:59;5.90;;;5.30;;
9260;SDS011;4667;42.726;23.252;2023-09-19T14:03:37;7.85;;;4.65;;
9260;SDS011;4667;42.726;23.252;2023-09-19T14:06:04;8.27;;;4.57;;
9260;SDS011;4667;42.726;23.252;2023-09-19T14:08:31;9.55;;;5.10;;
9260;SDS011;4667;42.726;23.252;2023-09-19T14:10:59;6.47;;;5.00;;
9260;SDS011;4667;42.726;23.252;2023-09-19T14:13:32;8.73;;;6.28;;
9260;SDS011;4667;42.726;23.252;2023-09-19T14:16:02;7.95;;;4.78;;
9260;SDS011;4667;42.726;23.252;2023-09-19T14:18:30;9.98;;;5.38;;
9260;SDS011;4667;42.726;23.252;2023-09-19T14:20:57;7.60;;;4.68;;
9260;SDS011;4667;42.726;23.252;2023-09-19T14:23:23;5.50;;;4.68;;
9260;SDS011;4667;42.726;23.252;2023-09-19T14:25:51;6.57;;;4.95;;
9260;SDS011;4667;42.726;23.252;2023-09-19T14:28:18;6.22;;;4.80;;
9260;SDS011;4667;42.726;23.252;2023-09-19T14:30:46;7.43;;;5.03;;
9260;SDS011;4667;42.726;23.252;2023-09-19T14:33:14;6.65;;;5.25;;
9260;SDS011;4667;42.726;23.252;2023-09-19T14:35:41;8.82;;;6.15;;
9260;SDS011;4667;42.726;23.252;2023-09-19T14:38:08;9.82;;;6.90;;
9260;SDS011;4667;42.726;23.252;2023-09-19T14:40:35;8.10;;;5.28;;
9260;SDS011;4667;42.726;23.252;2023-09-19T14:43:02;8.77;;;5.88;;
9260;SDS011;4667;42.726;23.252;2023-09-19T14:45:29;8.25;;;6.07;;
9260;SDS011;4667;42.726;23.252;2023-09-19T14:47:57;9.90;;;5.72;;
9260;SDS011;4667;42.726;23.252;2023-09-19T14:50:24;9.27;;;5.43;;
9260;SDS011;4667;42.726;23.252;2023-09-19T14:52:51;9.40;;;5.78;;
9260;SDS011;4667;42.726;23.252;2023-09-19T14:55:19;8.20;;;5.13;;
9260;SDS011;4667;42.726;23.252;2023-09-19T14:57:48;6.07;;;5.45;;
9260;SDS011;4667;42.726;23.252;2023-09-19T15:00:16;7.32;;;5.80;;
9260;SDS011;4667;42.726;23.252;2023-09-19T15:02:45;11.55;;;6.20;;
9260;SDS011;4667;42.726;23.252;2023-09-19T15:05:16;10.65;;;6.60;;
9260;SDS011;4667;42.726;23.252;2023-09-19T15:07:43;7.22;;;6.00;;
9260;SDS011;4667;42.726;23.252;2023-09-19T15:10:10;6.68;;;5.70;;
9260;SDS011;4667;42.726;23.252;2023-09-19T15:12:38;8.75;;;5.75;;
9260;SDS011;4667;42.726;23.252;2023-09-19T15:15:05;10.35;;;6.32;;
9260;SDS011;4667;42.726;23.252;2023-09-19T15:17:33;8.20;;;6.43;;
9260;SDS011;4667;42.726;23.252;2023-09-19T15:20:00;10.45;;;6.45;;
9260;SDS011;4667;42.726;23.252;2023-09-19T15:22:32;12.75;;;6.15;;
9260;SDS011;4667;42.726;23.252;2023-09-19T15:25:00;6.22;;;5.43;;
9260;SDS011;4667;42.726;23.252;2023-09-19T15:27:29;9.25;;;5.68;;
9260;SDS011;4667;42.726;23.252;2023-09-19T15:29:57;8.73;;;6.18;;
9260;SDS011;4667;42.726;23.252;2023-09-19T15:32:24;9.98;;;6.32;;
9260;SDS011;4667;42.726;23.252;2023-09-19T15:34:51;9.25;;;5.72;;
9260;SDS011;4667;42.726;23.252;2023-09-19T15:37:18;8.80;;;5.70;;
9260;SDS011;4667;42.726;23.252;2023-09-19T15:39:47;7.57;;;6.25;;
9260;SDS011;4667;42.726;23.252;2023-09-19T15:42:14;8.10;;;6.97;;
9260;SDS011;4667;42.726;23.252;2023-09-19T15:44:41;9.18;;;6.80;;